In Rescue
 
Open Full Screen Window  High Contrast Mode
Wind Gusting 00 knots
06
May 25, 2022 11:05 PM EDT
Weather Information
Wind Direction
  150 °
Wind Speed
  06 kt (7 mph)
Wind Gust
  00 kt (0 mph)
Altimeter
29.83 in
Visibility
10 SM
Temperature
20° C
68° F
Dewpoint
19° C
66° F
Humidity
94%
Sky Condition
Overcast @ 11,000 ft
VFR

METAR KLWA 260305Z AUTO 15006KT 10SM OVC110 20/19 A2983 RMK AO2 T02040193

FAA Disclaimer: The data displayed is for advisory purposes only and is not to be used for flight planning or operations.